Time;durP1;ratioP1;P1;durP2;ratioP2;P2;SDS_P1;SDS_P2;PMS_P1;PMS_P2;Temp;Humidity;BMP_temperature;BMP_pressure;BME280_temperature;BME280_humidity;BME280_pressure;Samples;Min_cycle;Max_cycle;Signal;HPM_P1;HPM_P2
2022/06/09 00:00:07;;;;;;;32.83;22.73;;;;;;;;;;4989388;28;20089;-86
2022/06/09 00:02:35;;;;;;;33.28;22.55;;;;;;;;;;4990200;28;20795;-86
2022/06/09 00:05:01;;;;;;;31.77;22.10;;;;;;;;;;4992182;28;20370;-86
2022/06/09 00:07:28;;;;;;;35.03;22.02;;;;;;;;;;4986989;28;20450;-86
2022/06/09 00:10:14;;;;;;;35.70;22.17;;;;;;;;;;4989630;28;20054;-86
2022/06/09 00:12:40;;;;;;;37.85;22.42;;;;;;;;;;4988781;28;20063;-86
2022/06/09 00:15:07;;;;;;;41.10;22.50;;;;;;;;;;4989071;28;20061;-86
2022/06/09 00:17:33;;;;;;;36.00;22.02;;;;;;;;;;4990390;28;20051;-86
2022/06/09 00:19:59;;;;;;;38.08;22.10;;;;;;;;;;4989567;28;20487;-86
2022/06/09 00:22:25;;;;;;;38.67;22.67;;;;;;;;;;4987921;28;20050;-86
2022/06/09 00:24:51;;;;;;;36.30;23.08;;;;;;;;;;4990865;28;20050;-86
2022/06/09 00:27:17;;;;;;;39.83;22.88;;;;;;;;;;4990469;28;20496;-86
2022/06/09 00:29:43;;;;;;;34.60;23.83;;;;;;;;;;4989566;28;20042;-86
2022/06/09 00:32:10;;;;;;;34.55;21.90;;;;;;;;;;4987383;28;20391;-86
2022/06/09 00:34:36;;;;;;;40.70;24.55;;;;;;;;;;5004844;28;20045;-86
2022/06/09 00:37:02;;;;;;;39.28;23.85;;;;;;;;;;4992249;28;20049;-86
2022/06/09 00:39:28;;;;;;;46.05;24.83;;;;;;;;;;4988159;28;20455;-86
2022/06/09 00:41:55;;;;;;;42.97;24.08;;;;;;;;;;4990339;28;20407;-86
2022/06/09 00:44:23;;;;;;;36.22;23.38;;;;;;;;;;4986278;28;20054;-86
2022/06/09 00:46:57;;;;;;;40.05;24.70;;;;;;;;;;4990734;28;20109;-86
2022/06/09 00:49:27;;;;;;;39.95;23.80;;;;;;;;;;4986573;28;20046;-86
2022/06/09 00:51:59;;;;;;;39.30;24.15;;;;;;;;;;4989211;28;20050;-86
2022/06/09 00:54:25;;;;;;;37.78;22.77;;;;;;;;;;4988222;28;20058;-86
2022/06/09 00:56:51;;;;;;;37.15;23.48;;;;;;;;;;4989903;28;20053;-86
2022/06/09 00:59:20;;;;;;;34.63;23.67;;;;;;;;;;4989372;28;20046;-86
2022/06/09 01:01:46;;;;;;;41.60;25.27;;;;;;;;;;4997794;28;20054;-86
2022/06/09 01:04:13;;;;;;;44.28;27.80;;;;;;;;;;4990057;28;20046;-86
2022/06/09 01:06:45;;;;;;;38.92;26.85;;;;;;;;;;4988253;28;20070;-86
2022/06/09 01:09:13;;;;;;;44.13;29.00;;;;;;;;;;4988671;28;20050;-86
2022/06/09 01:11:39;;;;;;;38.50;27.13;;;;;;;;;;4988620;28;20046;-86
2022/06/09 01:14:06;;;;;;;45.30;28.85;;;;;;;;;;4987747;28;20125;-86
2022/06/09 01:16:32;;;;;;;41.97;28.20;;;;;;;;;;4990215;28;20038;-86
2022/06/09 01:18:58;;;;;;;34.38;25.75;;;;;;;;;;4988428;28;20138;-86
2022/06/09 01:21:53;;;;;;;39.08;27.75;;;;;;;;;;4988088;28;20462;-86
2022/06/09 01:24:31;;;;;;;45.90;29.00;;;;;;;;;;4990292;28;20050;-86
2022/06/09 01:26:57;;;;;;;42.40;27.52;;;;;;;;;;4988056;28;20056;-86
2022/06/09 01:29:44;;;;;;;43.08;27.17;;;;;;;;;;4988994;28;20314;-86
2022/06/09 01:32:18;;;;;;;39.55;26.80;;;;;;;;;;4984713;28;20055;-86
2022/06/09 01:35:07;;;;;;;33.85;25.80;;;;;;;;;;4990837;28;20062;-86
2022/06/09 01:37:37;;;;;;;35.13;26.83;;;;;;;;;;4989867;28;20509;-86
2022/06/09 01:40:05;;;;;;;38.15;26.83;;;;;;;;;;4971431;28;20042;-86
2022/06/09 01:42:33;;;;;;;38.92;27.95;;;;;;;;;;4972784;28;20411;-87
2022/06/09 01:45:02;;;;;;;42.75;27.20;;;;;;;;;;4988220;28;20058;-86
2022/06/09 01:47:34;;;;;;;31.33;22.95;;;;;;;;;;4990439;28;20054;-86
2022/06/09 01:50:03;;;;;;;36.17;24.27;;;;;;;;;;4988068;28;20488;-86
2022/06/09 01:52:29;;;;;;;30.25;20.48;;;;;;;;;;4986310;28;20133;-86
2022/06/09 01:54:56;;;;;;;29.27;21.17;;;;;;;;;;4989554;28;20050;-86
2022/06/09 01:57:27;;;;;;;35.13;23.73;;;;;;;;;;4994746;28;20550;-86
2022/06/09 01:59:55;;;;;;;33.67;23.98;;;;;;;;;;4988322;28;20407;-86
2022/06/09 02:02:26;;;;;;;37.75;25.23;;;;;;;;;;4986559;28;20049;-86
2022/06/09 02:04:54;;;;;;;33.42;23.52;;;;;;;;;;4988307;28;20046;-86
2022/06/09 02:07:21;;;;;;;29.52;22.15;;;;;;;;;;4990047;28;20448;-86
2022/06/09 02:09:47;;;;;;;39.38;22.63;;;;;;;;;;4987692;28;20050;-86
2022/06/09 02:12:15;;;;;;;29.75;21.45;;;;;;;;;;4987393;28;20070;-86
2022/06/09 02:14:43;;;;;;;29.40;20.05;;;;;;;;;;4990089;28;21075;-86
2022/06/09 02:17:09;;;;;;;26.00;19.48;;;;;;;;;;4985917;28;20054;-85
2022/06/09 02:19:37;;;;;;;31.17;23.33;;;;;;;;;;4991175;28;20499;-86
2022/06/09 02:22:05;;;;;;;30.63;22.50;;;;;;;;;;4991627;28;20125;-85
2022/06/09 02:24:32;;;;;;;36.15;23.23;;;;;;;;;;4992597;28;20057;-86
2022/06/09 02:26:58;;;;;;;25.75;19.23;;;;;;;;;;5010830;28;20407;-86
2022/06/09 02:29:24;;;;;;;34.03;21.17;;;;;;;;;;4994002;28;20049;-86
2022/06/09 02:31:50;;;;;;;29.70;21.85;;;;;;;;;;4997567;28;20046;-86
2022/06/09 02:34:17;;;;;;;40.83;29.05;;;;;;;;;;4992950;28;20046;-86
2022/06/09 02:36:43;;;;;;;43.53;30.58;;;;;;;;;;4983464;28;20141;-86
2022/06/09 02:39:09;;;;;;;44.60;30.98;;;;;;;;;;4990871;28;20050;-86
2022/06/09 02:41:35;;;;;;;44.03;28.70;;;;;;;;;;4993104;28;20054;-86
2022/06/09 02:44:01;;;;;;;51.38;31.08;;;;;;;;;;4991994;28;20057;-86
2022/06/09 02:46:27;;;;;;;51.08;30.95;;;;;;;;;;4988853;28;20053;-86
2022/06/09 02:48:53;;;;;;;47.40;31.58;;;;;;;;;;4989353;28;20043;-86
2022/06/09 02:51:19;;;;;;;44.65;29.85;;;;;;;;;;4991991;28;20558;-86
2022/06/09 02:53:45;;;;;;;50.92;30.98;;;;;;;;;;4992528;28;20042;-86
2022/06/09 02:56:11;;;;;;;48.13;29.58;;;;;;;;;;4997916;28;20411;-86
2022/06/09 02:58:37;;;;;;;49.00;28.92;;;;;;;;;;5001192;28;20114;-86
2022/06/09 03:01:03;;;;;;;52.17;30.52;;;;;;;;;;4989706;28;20054;-86
2022/06/09 03:03:29;;;;;;;58.28;31.42;;;;;;;;;;4991389;28;20046;-86
2022/06/09 03:05:55;;;;;;;46.47;29.55;;;;;;;;;;4990847;28;20538;-86
2022/06/09 03:08:21;;;;;;;58.78;30.73;;;;;;;;;;5002822;28;20046;-86
2022/06/09 03:10:47;;;;;;;54.28;30.73;;;;;;;;;;4991286;28;20085;-86
2022/06/09 03:13:14;;;;;;;51.97;31.33;;;;;;;;;;4990955;28;20085;-86
2022/06/09 03:15:40;;;;;;;54.38;30.98;;;;;;;;;;4990102;28;20046;-86
2022/06/09 03:18:06;;;;;;;49.35;29.90;;;;;;;;;;4988817;28;20057;-85
2022/06/09 03:20:33;;;;;;;47.35;30.02;;;;;;;;;;4992559;28;20082;-86
2022/06/09 03:22:59;;;;;;;49.78;29.70;;;;;;;;;;4993037;28;20046;-86
2022/06/09 03:25:25;;;;;;;53.08;30.77;;;;;;;;;;4990599;28;20054;-86
2022/06/09 03:27:51;;;;;;;53.58;30.38;;;;;;;;;;4990928;28;20511;-86
2022/06/09 03:30:18;;;;;;;48.22;30.58;;;;;;;;;;4989950;28;20085;-85
2022/06/09 03:32:44;;;;;;;45.10;28.10;;;;;;;;;;4992346;28;20042;-86
2022/06/09 03:35:10;;;;;;;46.42;28.67;;;;;;;;;;4989876;28;20042;-86
2022/06/09 03:37:37;;;;;;;49.33;30.02;;;;;;;;;;4990738;28;20042;-86
2022/06/09 03:40:04;;;;;;;46.65;29.85;;;;;;;;;;4994918;28;20376;-86
2022/06/09 03:42:30;;;;;;;40.08;26.83;;;;;;;;;;5010469;28;20054;-86
2022/06/09 03:44:56;;;;;;;40.13;28.23;;;;;;;;;;5000207;28;20061;-86
2022/06/09 03:47:22;;;;;;;40.35;27.58;;;;;;;;;;4990458;28;20062;-86
2022/06/09 03:49:49;;;;;;;40.80;28.33;;;;;;;;;;4989555;28;20429;-86
2022/06/09 03:52:15;;;;;;;35.95;25.60;;;;;;;;;;4991149;28;20462;-86
2022/06/09 03:54:41;;;;;;;37.55;26.48;;;;;;;;;;4989419;28;20042;-86
2022/06/09 03:57:07;;;;;;;34.25;25.83;;;;;;;;;;4991338;28;20099;-86
2022/06/09 03:59:33;;;;;;;41.25;27.95;;;;;;;;;;4989021;28;20038;-86
2022/06/09 04:01:59;;;;;;;39.38;28.40;;;;;;;;;;4990476;28;20050;-86
2022/06/09 04:04:25;;;;;;;35.45;27.65;;;;;;;;;;4991086;28;20069;-86
2022/06/09 04:06:52;;;;;;;38.47;26.85;;;;;;;;;;4991679;28;20053;-86
2022/06/09 04:09:18;;;;;;;39.45;27.10;;;;;;;;;;4989263;28;20054;-86
2022/06/09 04:11:44;;;;;;;42.90;28.00;;;;;;;;;;4991751;28;20066;-86
2022/06/09 04:14:10;;;;;;;39.33;27.23;;;;;;;;;;4988915;28;20125;-86
2022/06/09 04:16:38;;;;;;;33.75;24.80;;;;;;;;;;4991264;28;20050;-86
2022/06/09 04:19:07;;;;;;;41.78;27.63;;;;;;;;;;4995402;28;20538;-86
2022/06/09 04:21:34;;;;;;;38.53;25.60;;;;;;;;;;5009290;28;20444;-86
2022/06/09 04:24:01;;;;;;;37.47;25.25;;;;;;;;;;4981233;28;20050;-86
2022/06/09 04:26:29;;;;;;;35.58;25.05;;;;;;;;;;4991887;28;20062;-85
2022/06/09 04:28:55;;;;;;;41.85;26.13;;;;;;;;;;4988102;28;20046;-86
2022/06/09 04:31:21;;;;;;;35.95;24.98;;;;;;;;;;4988291;28;20046;-86
2022/06/09 04:33:48;;;;;;;37.75;25.30;;;;;;;;;;4991057;28;20053;-86
2022/06/09 04:36:17;;;;;;;35.58;24.67;;;;;;;;;;4989611;28;20096;-86
2022/06/09 04:38:43;;;;;;;36.80;26.55;;;;;;;;;;4988422;28;20060;-86
2022/06/09 04:41:10;;;;;;;37.22;26.38;;;;;;;;;;4990194;28;20480;-86
2022/06/09 04:43:41;;;;;;;35.05;26.45;;;;;;;;;;4988412;28;20053;-86
2022/06/09 04:46:08;;;;;;;42.05;26.73;;;;;;;;;;4990453;28;20056;-86
2022/06/09 04:48:35;;;;;;;38.35;25.52;;;;;;;;;;5000422;28;20459;-86
2022/06/09 04:51:01;;;;;;;41.97;27.42;;;;;;;;;;4990573;28;20049;-86
2022/06/09 04:53:27;;;;;;;40.70;27.58;;;;;;;;;;4990882;28;20499;-86
2022/06/09 04:55:53;;;;;;;42.72;27.05;;;;;;;;;;4990587;28;20384;-86
2022/06/09 04:58:19;;;;;;;36.40;25.80;;;;;;;;;;4988833;28;20097;-86
2022/06/09 05:00:45;;;;;;;34.78;25.27;;;;;;;;;;4971649;28;20043;-87
2022/06/09 05:03:11;;;;;;;35.95;26.70;;;;;;;;;;4989025;28;20046;-87
2022/06/09 05:05:39;;;;;;;33.17;25.83;;;;;;;;;;4989830;28;20044;-86
2022/06/09 05:08:05;;;;;;;35.53;25.95;;;;;;;;;;4988356;28;20054;-90
2022/06/09 05:10:31;;;;;;;31.55;25.15;;;;;;;;;;4990451;28;20059;-87
2022/06/09 05:12:58;;;;;;;34.47;25.48;;;;;;;;;;4989065;28;20054;-86
2022/06/09 05:15:24;;;;;;;33.55;25.35;;;;;;;;;;4988754;28;20050;-86
2022/06/09 05:17:51;;;;;;;35.85;27.25;;;;;;;;;;4989295;28;20558;-86
2022/06/09 05:20:19;;;;;;;32.35;25.38;;;;;;;;;;4987233;28;20455;-86
2022/06/09 05:22:45;;;;;;;30.58;24.13;;;;;;;;;;4990719;28;20351;-86
2022/06/09 05:25:11;;;;;;;35.03;25.30;;;;;;;;;;4993061;28;20078;-86
2022/06/09 05:27:38;;;;;;;27.58;23.08;;;;;;;;;;4989545;28;20042;-86
2022/06/09 05:30:05;;;;;;;30.08;23.83;;;;;;;;;;4986074;28;20149;-86
2022/06/09 05:32:31;;;;;;;30.90;24.00;;;;;;;;;;4988011;28;20550;-86
2022/06/09 05:34:57;;;;;;;31.45;23.52;;;;;;;;;;4989065;28;20568;-86
2022/06/09 05:37:23;;;;;;;31.67;22.42;;;;;;;;;;4989206;28;20038;-86
2022/06/09 05:45:36;;;;;;;27.35;22.83;;;;;;;;;;4965632;28;20488;-86
2022/06/09 05:48:02;;;;;;;31.67;23.42;;;;;;;;;;4953540;28;20046;-88
2022/06/09 05:50:28;;;;;;;30.80;23.48;;;;;;;;;;5010247;23;20807;-81
2022/06/09 05:52:54;;;;;;;27.55;20.13;;;;;;;;;;5006768;28;20052;-75
2022/06/09 05:55:20;;;;;;;25.75;18.42;;;;;;;;;;5007918;28;20085;-75
2022/06/09 05:57:46;;;;;;;24.15;16.80;;;;;;;;;;5013755;28;20491;-75
2022/06/09 06:00:12;;;;;;;22.85;17.10;;;;;;;;;;5013565;28;20046;-75
2022/06/09 06:02:38;;;;;;;23.02;17.25;;;;;;;;;;5013707;28;20368;-75
2022/06/09 06:05:05;;;;;;;20.52;14.75;;;;;;;;;;5012636;28;20043;-77
2022/06/09 06:07:31;;;;;;;15.30;12.85;;;;;;;;;;5009439;28;20039;-75
2022/06/09 06:09:57;;;;;;;14.63;11.63;;;;;;;;;;5006991;28;20077;-75
2022/06/09 06:12:23;;;;;;;13.77;11.13;;;;;;;;;;5010738;28;20050;-75
2022/06/09 06:14:49;;;;;;;14.73;11.68;;;;;;;;;;5011049;28;20042;-75
2022/06/09 06:17:15;;;;;;;14.38;12.07;;;;;;;;;;5008641;28;20038;-75
2022/06/09 06:19:41;;;;;;;12.20;9.55;;;;;;;;;;5007796;28;20046;-76
2022/06/09 06:22:08;;;;;;;11.80;9.77;;;;;;;;;;5008695;28;20042;-74
2022/06/09 06:24:35;;;;;;;11.88;9.40;;;;;;;;;;5009164;28;20065;-75
2022/06/09 06:27:01;;;;;;;10.75;9.30;;;;;;;;;;5011740;28;20050;-75
2022/06/09 06:29:28;;;;;;;10.10;8.57;;;;;;;;;;5009510;28;20084;-75
2022/06/09 06:31:54;;;;;;;11.13;9.05;;;;;;;;;;5009445;28;20073;-75
2022/06/09 06:34:21;;;;;;;8.98;8.02;;;;;;;;;;4994150;28;20046;-75
2022/06/09 06:36:48;;;;;;;8.07;7.10;;;;;;;;;;4993644;28;20058;-75
2022/06/09 06:39:14;;;;;;;9.15;7.38;;;;;;;;;;5014001;28;20053;-76
2022/06/09 06:41:40;;;;;;;8.77;7.50;;;;;;;;;;5011973;28;20046;-75
2022/06/09 06:44:06;;;;;;;10.07;7.57;;;;;;;;;;5012012;28;20050;-76
2022/06/09 06:46:32;;;;;;;8.90;8.00;;;;;;;;;;5009203;28;20046;-75
2022/06/09 06:48:58;;;;;;;9.68;7.60;;;;;;;;;;4997476;28;20056;-78
2022/06/09 06:51:25;;;;;;;10.82;8.05;;;;;;;;;;5012320;28;20078;-76
2022/06/09 06:53:51;;;;;;;10.35;8.00;;;;;;;;;;5013906;28;20057;-76
2022/06/09 06:56:17;;;;;;;12.18;8.38;;;;;;;;;;5008882;28;20062;-74
2022/06/09 06:58:43;;;;;;;13.57;8.25;;;;;;;;;;5015745;28;20081;-76
2022/06/09 07:01:09;;;;;;;11.20;8.10;;;;;;;;;;5015866;28;20037;-76
2022/06/09 07:03:35;;;;;;;10.52;6.88;;;;;;;;;;5015473;28;20035;-76
2022/06/09 07:06:01;;;;;;;8.35;6.82;;;;;;;;;;5009548;28;20046;-78
2022/06/09 07:08:28;;;;;;;10.68;6.80;;;;;;;;;;4986093;28;20169;-75
2022/06/09 07:10:54;;;;;;;7.85;5.80;;;;;;;;;;4985336;28;20057;-76
2022/06/09 07:13:20;;;;;;;9.00;4.93;;;;;;;;;;4986514;28;20061;-79
2022/06/09 07:15:46;;;;;;;6.15;4.65;;;;;;;;;;5003153;28;20069;-76
2022/06/09 07:18:12;;;;;;;9.65;3.88;;;;;;;;;;4985593;28;20065;-76
2022/06/09 07:20:40;;;;;;;8.55;4.53;;;;;;;;;;4986499;28;20041;-76
2022/06/09 07:23:06;;;;;;;6.28;3.67;;;;;;;;;;4989429;28;20038;-74
2022/06/09 07:25:33;;;;;;;7.20;3.60;;;;;;;;;;4995510;28;20107;-74
2022/06/09 07:27:59;;;;;;;5.15;3.42;;;;;;;;;;4988650;28;20096;-74
2022/06/09 07:30:26;;;;;;;6.15;3.22;;;;;;;;;;4987324;28;20069;-72
2022/06/09 07:32:53;;;;;;;6.97;3.42;;;;;;;;;;4989740;28;20069;-74
2022/06/09 07:35:21;;;;;;;9.38;3.45;;;;;;;;;;4996333;28;20046;-75
2022/06/09 07:37:47;;;;;;;7.60;3.47;;;;;;;;;;4995713;28;20121;-74
2022/06/09 07:40:14;;;;;;;5.53;3.10;;;;;;;;;;4993537;28;20096;-72
2022/06/09 07:42:40;;;;;;;7.40;3.42;;;;;;;;;;4994800;28;20042;-73
2022/06/09 07:45:08;;;;;;;6.43;2.88;;;;;;;;;;4972549;28;20084;-73
2022/06/09 07:47:34;;;;;;;6.78;3.00;;;;;;;;;;4987932;28;20057;-73
2022/06/09 07:50:00;;;;;;;5.75;3.00;;;;;;;;;;5005262;28;20411;-73
2022/06/09 07:52:26;;;;;;;8.38;3.42;;;;;;;;;;4995948;28;20081;-72
2022/06/09 07:54:52;;;;;;;7.68;3.67;;;;;;;;;;4995066;28;20458;-73
2022/06/09 07:57:18;;;;;;;7.68;3.30;;;;;;;;;;4989838;28;20049;-73
2022/06/09 07:59:45;;;;;;;8.63;2.95;;;;;;;;;;4987596;28;20038;-74
2022/06/09 08:02:12;;;;;;;8.38;3.08;;;;;;;;;;4987336;28;20516;-72
2022/06/09 08:04:38;;;;;;;7.60;3.30;;;;;;;;;;4986587;28;20050;-73
2022/06/09 08:07:04;;;;;;;7.20;2.78;;;;;;;;;;4985854;28;20674;-73
2022/06/09 08:09:31;;;;;;;8.80;3.20;;;;;;;;;;4990606;28;20046;-72
2022/06/09 08:11:57;;;;;;;8.00;2.55;;;;;;;;;;4990854;28;21745;-72
2022/06/09 08:14:23;;;;;;;5.70;2.88;;;;;;;;;;4985972;28;20141;-72
2022/06/09 08:16:51;;;;;;;8.20;3.35;;;;;;;;;;4986941;28;20053;-72
2022/06/09 08:19:17;;;;;;;7.10;3.35;;;;;;;;;;4992551;28;20129;-72
2022/06/09 08:21:43;;;;;;;6.30;2.80;;;;;;;;;;4993615;28;20487;-72
2022/06/09 08:24:09;;;;;;;7.10;2.88;;;;;;;;;;4993114;28;20042;-72
2022/06/09 08:26:36;;;;;;;6.45;2.80;;;;;;;;;;4986916;28;20043;-73
2022/06/09 08:29:02;;;;;;;9.55;3.10;;;;;;;;;;4985495;28;20045;-73
2022/06/09 08:31:29;;;;;;;7.05;2.85;;;;;;;;;;4986496;28;20065;-73
2022/06/09 08:33:55;;;;;;;7.72;3.03;;;;;;;;;;4986834;28;20177;-73
2022/06/09 08:36:21;;;;;;;8.23;3.17;;;;;;;;;;4986711;28;20053;-73
2022/06/09 08:38:48;;;;;;;7.22;3.42;;;;;;;;;;4986646;28;20054;-73
2022/06/09 08:41:34;;;;;;;5.95;2.80;;;;;;;;;;4984946;28;20068;-74
2022/06/09 08:44:10;;;;;;;8.07;3.15;;;;;;;;;;4985395;28;20560;-74
2022/06/09 08:46:55;;;;;;;6.80;2.90;;;;;;;;;;4984116;28;20507;-72
2022/06/09 08:49:34;;;;;;;5.82;2.65;;;;;;;;;;4983535;28;20050;-73
2022/06/09 08:52:03;;;;;;;9.55;3.47;;;;;;;;;;4985025;28;20057;-73
2022/06/09 08:54:33;;;;;;;5.85;3.08;;;;;;;;;;4986191;28;20034;-73
2022/06/09 08:57:01;;;;;;;7.85;3.20;;;;;;;;;;4986205;28;20046;-72
2022/06/09 08:59:29;;;;;;;9.88;3.30;;;;;;;;;;4992552;28;20089;-72
2022/06/09 09:01:56;;;;;;;7.07;3.22;;;;;;;;;;4993182;28;20400;-72
2022/06/09 09:04:31;;;;;;;6.60;3.13;;;;;;;;;;4992876;28;20131;-73
2022/06/09 09:07:01;;;;;;;8.88;3.40;;;;;;;;;;4984860;28;20046;-72
2022/06/09 09:09:32;;;;;;;9.02;3.28;;;;;;;;;;4971754;28;20496;-72
2022/06/09 09:11:58;;;;;;;10.32;3.13;;;;;;;;;;4984595;28;20049;-73
2022/06/09 09:14:28;;;;;;;7.30;2.90;;;;;;;;;;4987273;28;20133;-79
2022/06/09 09:17:00;;;;;;;7.85;3.20;;;;;;;;;;4970080;28;20488;-74
2022/06/09 09:19:43;;;;;;;6.88;2.90;;;;;;;;;;5006391;28;20042;-72
2022/06/09 09:22:16;;;;;;;9.25;2.95;;;;;;;;;;4990530;28;20550;-72
2022/06/09 09:24:49;;;;;;;8.07;2.92;;;;;;;;;;4995435;28;20046;-73
2022/06/09 09:27:18;;;;;;;7.95;2.60;;;;;;;;;;4989889;28;20093;-73
2022/06/09 09:29:50;;;;;;;10.90;2.90;;;;;;;;;;4983924;28;20089;-73
2022/06/09 09:32:19;;;;;;;9.70;3.10;;;;;;;;;;4997711;28;20464;-74
2022/06/09 09:34:47;;;;;;;8.13;3.20;;;;;;;;;;4998068;28;20042;-73
2022/06/09 09:37:13;;;;;;;7.93;3.00;;;;;;;;;;4996775;28;20117;-74
2022/06/09 09:39:50;;;;;;;8.23;2.67;;;;;;;;;;4996264;28;20054;-73
2022/06/09 09:42:22;;;;;;;8.00;3.10;;;;;;;;;;4996956;28;20045;-74
2022/06/09 09:44:59;;;;;;;7.45;3.47;;;;;;;;;;4980707;28;20050;-73
2022/06/09 09:47:27;;;;;;;7.93;3.15;;;;;;;;;;4996455;28;20074;-73
2022/06/09 09:49:55;;;;;;;9.60;3.10;;;;;;;;;;4997480;28;20050;-74
2022/06/09 09:52:30;;;;;;;6.70;2.92;;;;;;;;;;4997459;28;20559;-74
2022/06/09 09:54:56;;;;;;;8.55;2.60;;;;;;;;;;4999021;28;20121;-75
2022/06/09 09:57:22;;;;;;;9.05;2.80;;;;;;;;;;4997793;28;20042;-74
2022/06/09 09:59:52;;;;;;;7.13;2.95;;;;;;;;;;4997429;28;20042;-74
2022/06/09 10:08:36;;;;;;;8.77;2.67;;;;;;;;;;4989418;28;20129;-73
2022/06/09 10:11:53;;;;;;;7.28;2.72;;;;;;;;;;4995779;28;20042;-72
2022/06/09 10:13:49;;;;;;;8.25;2.60;;;;;;;;;;4996777;28;20046;-73
2022/06/09 10:16:15;;;;;;;6.55;2.50;;;;;;;;;;4993247;28;20047;-74
2022/06/09 10:18:44;;;;;;;9.40;2.88;;;;;;;;;;4979394;28;20073;-74
2022/06/09 10:21:13;;;;;;;7.25;3.08;;;;;;;;;;4993052;28;20050;-73
2022/06/09 10:23:49;;;;;;;6.90;2.60;;;;;;;;;;4989853;28;20113;-73
2022/06/09 10:26:17;;;;;;;10.63;3.03;;;;;;;;;;4987351;28;20100;-74
2022/06/09 10:28:48;;;;;;;9.02;3.03;;;;;;;;;;4988197;28;20046;-73
2022/06/09 10:31:20;;;;;;;5.13;2.60;;;;;;;;;;4991240;28;20049;-74
2022/06/09 10:33:54;;;;;;;8.20;2.90;;;;;;;;;;4989734;28;20065;-74
2022/06/09 10:36:32;;;;;;;7.22;2.50;;;;;;;;;;4987812;28;22084;-73
2022/06/09 10:39:01;;;;;;;8.60;2.70;;;;;;;;;;4988380;28;20049;-74
2022/06/09 10:41:45;;;;;;;7.47;3.08;;;;;;;;;;4987821;28;20046;-73
2022/06/09 10:44:18;;;;;;;8.85;2.55;;;;;;;;;;4988532;28;20078;-74
2022/06/09 10:55:14;;;;;;;9.90;2.70;;;;;;;;;;4998901;28;20376;-74
2022/06/09 10:55:24;;;;;;;6.90;2.28;;;;;;;;;;4991576;28;20046;-73
2022/06/09 10:57:56;;;;;;;6.88;2.60;;;;;;;;;;4978821;28;20396;-74
2022/06/09 11:00:30;;;;;;;5.13;2.30;;;;;;;;;;4995408;28;20407;-74
2022/06/09 11:02:59;;;;;;;5.65;2.40;;;;;;;;;;4994786;28;20045;-74
2022/06/09 11:05:45;;;;;;;5.25;2.60;;;;;;;;;;4993738;28;20061;-74
2022/06/09 11:08:19;;;;;;;4.47;2.05;;;;;;;;;;4996075;28;20042;-74
2022/06/09 11:10:48;;;;;;;7.20;2.38;;;;;;;;;;4995611;28;20047;-74
2022/06/09 11:13:17;;;;;;;7.65;2.40;;;;;;;;;;4994971;28;20053;-73
2022/06/09 11:15:46;;;;;;;8.15;2.50;;;;;;;;;;4995146;28;20511;-75
2022/06/09 11:18:15;;;;;;;4.80;2.38;;;;;;;;;;4993727;28;20046;-73
2022/06/09 11:21:00;;;;;;;5.65;2.53;;;;;;;;;;4994866;28;20046;-74
2022/06/09 11:23:28;;;;;;;7.88;2.65;;;;;;;;;;4993400;28;20049;-73
2022/06/09 11:26:02;;;;;;;6.03;2.40;;;;;;;;;;4994623;28;20046;-73
2022/06/09 11:28:28;;;;;;;13.00;2.53;;;;;;;;;;4995440;28;20101;-74
2022/06/09 11:31:06;;;;;;;5.00;2.28;;;;;;;;;;4994071;28;20042;-74
2022/06/09 11:33:51;;;;;;;8.25;2.65;;;;;;;;;;4992920;28;20403;-74
2022/06/09 11:36:20;;;;;;;6.95;2.40;;;;;;;;;;4993382;28;20058;-74
2022/06/09 11:38:49;;;;;;;6.47;2.40;;;;;;;;;;4994099;28;20081;-74
2022/06/09 11:41:34;;;;;;;6.10;2.38;;;;;;;;;;4994271;28;20504;-74
2022/06/09 11:44:18;;;;;;;8.25;2.90;;;;;;;;;;4992681;28;20475;-74
2022/06/09 11:46:45;;;;;;;6.72;2.90;;;;;;;;;;4995061;28;20133;-74
2022/06/09 11:49:20;;;;;;;8.98;2.70;;;;;;;;;;4994165;28;20038;-74
2022/06/09 11:51:47;;;;;;;7.30;2.70;;;;;;;;;;4994083;28;20487;-74
2022/06/09 11:54:39;;;;;;;7.93;2.85;;;;;;;;;;4992831;28;20450;-73
2022/06/09 11:57:27;;;;;;;8.45;2.85;;;;;;;;;;4985321;28;20062;-73
2022/06/09 12:00:01;;;;;;;7.82;2.80;;;;;;;;;;4994834;28;20050;-74
2022/06/09 12:02:45;;;;;;;6.43;2.78;;;;;;;;;;4993115;28;20088;-74
2022/06/09 12:05:14;;;;;;;9.20;3.03;;;;;;;;;;4974522;28;20043;-74
2022/06/09 12:07:40;;;;;;;7.45;2.97;;;;;;;;;;4992221;28;20445;-74
2022/06/09 12:10:33;;;;;;;7.82;3.20;;;;;;;;;;4994835;28;20124;-74
2022/06/09 12:13:02;;;;;;;8.77;3.35;;;;;;;;;;4995715;28;20053;-74
2022/06/09 12:15:30;;;;;;;8.20;3.22;;;;;;;;;;4994094;28;20491;-74
2022/06/09 12:18:05;;;;;;;10.15;3.30;;;;;;;;;;4995048;28;20046;-74
2022/06/09 12:20:40;;;;;;;6.68;2.85;;;;;;;;;;4993892;28;20046;-74
2022/06/09 12:23:21;;;;;;;6.28;3.13;;;;;;;;;;4993450;28;20086;-74
2022/06/09 12:26:06;;;;;;;9.18;3.20;;;;;;;;;;4992053;28;20066;-74
2022/06/09 12:28:55;;;;;;;6.80;3.10;;;;;;;;;;4992973;28;20053;-74
2022/06/09 12:31:26;;;;;;;8.00;3.00;;;;;;;;;;4994130;28;20463;-74
2022/06/09 12:34:10;;;;;;;8.23;3.42;;;;;;;;;;4993222;28;20117;-74
2022/06/09 12:36:39;;;;;;;8.07;3.47;;;;;;;;;;4976290;28;20050;-74
2022/06/09 12:39:23;;;;;;;8.20;3.22;;;;;;;;;;4992448;28;20626;-73
2022/06/09 12:41:54;;;;;;;8.00;2.97;;;;;;;;;;4993868;28;20036;-73
2022/06/09 12:44:26;;;;;;;9.40;2.97;;;;;;;;;;4994634;28;20042;-73
2022/06/09 12:47:00;;;;;;;5.32;2.80;;;;;;;;;;4992289;28;20446;-73
2022/06/09 12:49:29;;;;;;;9.98;3.25;;;;;;;;;;4994502;28;20057;-78
2022/06/09 12:51:55;;;;;;;6.32;3.22;;;;;;;;;;4994740;28;20060;-74
2022/06/09 12:54:32;;;;;;;7.15;2.95;;;;;;;;;;4994014;28;20492;-74
2022/06/09 12:57:07;;;;;;;6.55;2.90;;;;;;;;;;4994179;28;20050;-74
2022/06/09 12:59:35;;;;;;;7.13;3.30;;;;;;;;;;4993524;28;20479;-73
2022/06/09 13:02:17;;;;;;;6.57;3.58;;;;;;;;;;4992057;28;20042;-74
2022/06/09 13:04:54;;;;;;;7.80;2.90;;;;;;;;;;4993197;28;20049;-74
2022/06/09 13:07:25;;;;;;;6.63;2.95;;;;;;;;;;4990713;28;20129;-74
2022/06/09 13:09:59;;;;;;;10.30;3.10;;;;;;;;;;4987948;28;20504;-75
2022/06/09 13:15:33;;;;;;;7.43;3.55;;;;;;;;;;4985431;28;20046;-74
2022/06/09 13:18:11;;;;;;;8.48;3.13;;;;;;;;;;4987891;28;20054;-75
2022/06/09 13:20:38;;;;;;;7.63;2.90;;;;;;;;;;5002105;28;20129;-74
2022/06/09 13:23:05;;;;;;;7.43;2.83;;;;;;;;;;4985755;28;20046;-74
2022/06/09 13:25:31;;;;;;;9.50;3.53;;;;;;;;;;4985014;28;20843;-74
2022/06/09 13:27:57;;;;;;;5.90;3.15;;;;;;;;;;4967632;28;20129;-74
2022/06/09 13:30:31;;;;;;;5.18;2.97;;;;;;;;;;4986286;28;20046;-74
2022/06/09 13:32:57;;;;;;;9.23;3.22;;;;;;;;;;4985192;28;20403;-74
2022/06/09 13:35:30;;;;;;;7.32;3.15;;;;;;;;;;4985003;28;20098;-73
2022/06/09 13:38:02;;;;;;;8.07;3.30;;;;;;;;;;4984846;28;20146;-74
2022/06/09 13:40:40;;;;;;;9.93;3.45;;;;;;;;;;4991560;28;20581;-74
2022/06/09 13:43:14;;;;;;;6.70;3.40;;;;;;;;;;4991624;28;20061;-73
2022/06/09 13:45:40;;;;;;;8.90;3.20;;;;;;;;;;4992331;28;20038;-73
2022/06/09 13:48:14;;;;;;;6.60;3.33;;;;;;;;;;4992933;28;20082;-73
2022/06/09 13:51:08;;;;;;;7.03;3.15;;;;;;;;;;4975080;28;20137;-73
2022/06/09 13:53:46;;;;;;;10.10;3.00;;;;;;;;;;4993653;28;20042;-73
2022/06/09 13:56:13;;;;;;;8.70;2.92;;;;;;;;;;4993122;28;20050;-73
2022/06/09 13:58:39;;;;;;;7.78;3.58;;;;;;;;;;4989882;28;20058;-73
2022/06/09 14:01:06;;;;;;;11.35;3.33;;;;;;;;;;4993508;28;20054;-72
2022/06/09 14:03:38;;;;;;;7.63;3.15;;;;;;;;;;4992986;28;20109;-72
2022/06/09 14:06:12;;;;;;;8.60;3.63;;;;;;;;;;4993399;28;20105;-72
2022/06/09 14:08:39;;;;;;;8.88;3.33;;;;;;;;;;4991702;28;20038;-72
2022/06/09 14:11:07;;;;;;;9.68;2.97;;;;;;;;;;4992272;28;20046;-72
2022/06/09 14:13:33;;;;;;;8.57;3.13;;;;;;;;;;4993877;28;20092;-72
2022/06/09 14:16:00;;;;;;;8.63;2.78;;;;;;;;;;4993848;28;20121;-72
2022/06/09 14:18:27;;;;;;;10.85;3.55;;;;;;;;;;4996294;28;20058;-73
2022/06/09 14:20:55;;;;;;;8.82;3.30;;;;;;;;;;4997315;28;20066;-73
2022/06/09 14:23:27;;;;;;;10.68;3.40;;;;;;;;;;4999424;28;20060;-73
2022/06/09 14:25:57;;;;;;;10.10;3.60;;;;;;;;;;4997740;28;20426;-73
2022/06/09 14:28:24;;;;;;;9.77;3.42;;;;;;;;;;4980869;28;20057;-73
2022/06/09 14:30:50;;;;;;;10.88;3.30;;;;;;;;;;4994753;28;20089;-73
2022/06/09 14:33:16;;;;;;;8.75;2.90;;;;;;;;;;4995626;28;20125;-72
2022/06/09 14:35:43;;;;;;;7.80;3.00;;;;;;;;;;4995923;28;20050;-73
2022/06/09 14:38:11;;;;;;;9.57;3.58;;;;;;;;;;4994656;28;20065;-72
2022/06/09 14:40:39;;;;;;;11.15;3.80;;;;;;;;;;4995715;28;20046;-73
2022/06/09 14:43:07;;;;;;;6.85;3.30;;;;;;;;;;4997158;28;20046;-73
2022/06/09 14:45:34;;;;;;;12.75;3.50;;;;;;;;;;4997009;28;20061;-73
2022/06/09 14:48:00;;;;;;;11.88;3.70;;;;;;;;;;4996436;28;20061;-73
2022/06/09 14:50:26;;;;;;;9.60;3.40;;;;;;;;;;4996050;28;20053;-72
2022/06/09 14:52:52;;;;;;;7.90;3.00;;;;;;;;;;4997500;28;20129;-72
2022/06/09 14:55:19;;;;;;;8.93;3.45;;;;;;;;;;4996378;28;20168;-72
2022/06/09 14:57:45;;;;;;;13.07;3.35;;;;;;;;;;4997558;28;20050;-72
2022/06/09 15:00:15;;;;;;;11.35;3.30;;;;;;;;;;4996524;28;20042;-72
2022/06/09 15:02:41;;;;;;;10.07;3.20;;;;;;;;;;4995354;28;20113;-73